Flight Track Log - Related Links

Times and Time Zones

All times are in EDT time to prevent confusion due to time zone crossing. See the N546QS flight status page for this flight to view local times or setup timezone preferences in your user account.

Time Position Orientation Groundspeed Altitude Reporting Facility
EDT Latitude Longitude Course Direction KTS MPH feet Rate Location/Type
Fri 05:00:03 PM 42.4289 -122.9003 352° North 188 216 5,100  Level Seattle Center
Fri 05:01:04 PM 42.5014 -122.9172 350° North 259 298 9,100 3,246 Climbing Seattle Center
Fri 05:02:05 PM 42.5803 -122.9319 352° North 292 336 11,700 2,732 Climbing Seattle Center
Fri 05:03:07 PM 42.6786 -122.9506 352° North 358 412 14,700 2,927 Climbing Seattle Center
Fri 05:04:08 PM 42.7822 -122.9706 352° North 384 442 17,700 1,623 Climbing Seattle Center
Fri 05:05:00 PM 42.7955 -122.9591 352° North  Level FlightAware Approximate
Fri 05:05:09 PM 42.8900 -122.9900 352° North 394 453 18,000  Level Seattle Center
Fri 05:06:10 PM 42.9994 -123.0108 352° North 398 458 18,000  Level Seattle Center
Fri 05:07:11 PM 43.1092 -123.0269 354° North 398 458 18,000  Level Seattle Center
Fri 05:08:12 PM 43.2175 -123.0475 352° North 395 455 18,000  Level Seattle Center
Fri 05:09:13 PM 43.3256 -123.0692 352° North 395 455 18,000 -541 Level Seattle Center
Fri 05:10:14 PM 43.4331 -123.0878 353° North 389 448 16,900 -1,574 Descending Seattle Center
Fri 05:11:15 PM 43.5600 -123.1136 352° North 383 441 14,800 -1,770 Descending Seattle Center
Fri 05:12:16 PM 43.6600 -123.1328 352° North 366 421 13,300 -1,415 Descending Seattle Center
Fri 05:13:18 PM 43.7450 -123.1489 352° North 321 369 11,900 -1,366 Descending Seattle Center
Fri 05:14:19 PM 43.8078 -123.2025 328° Northwest 279 321 10,500 -1,328 Descending Seattle Center
Fri 05:15:20 PM 43.8658 -123.2744 318° Northwest 278 320 9,200 -1,230 Descending Seattle Center
Fri 05:16:21 PM 43.9231 -123.3458 318° Northwest 277 319 8,000 -1,082 Descending Seattle Center
Fri 05:17:22 PM 43.9992 -123.3489 358° North 286 329 7,000 -984 Descending Seattle Center
Fri 05:18:23 PM 44.0753 -123.3408 North 276 318 6,000 -689 Descending Seattle Center
Fri 05:19:24 PM 44.1517 -123.3356 North 276 318 5,600 -443 Descending Seattle Center
Fri 05:20:25 PM 44.2278 -123.3300 North 274 315 5,100 -738 Descending Seattle Center
Fri 05:21:26 PM 44.3122 -123.3239 North 267 307 4,100 -984 Descending Seattle Center

Login

Don't have an account? Register now (free) for customized features, flight alerts, and more!